Healdton, OK (73438)

11:42 AM CST on December 05, 2016 (GMT -0600)
Carter County Dist 2 | | Change Station

Elev 933 ft 34.25 °N, 97.50 °W | Updated 6 minutes ago

Overcast
Overcast
46.3 °F
Feels Like 41 °F
N
11.0
Wind Variable Wind from SE
Gusts 17.0 mph

Today
High -- | Low -- °F
--% Chance of Precip.
Yesterday
High -- | Low -- °F
Precip. -- in
Pressure 29.89 in
Visibility 10.0 miles
Clouds Overcast 900 ft
Windchill 41 °F
Dew Point 44 °F
Humidity 91%
Rainfall 0.02 in
Snow Depth Not available.
7:21 AM 5:20 PM
Waxing Crescent, 33% visible
METAR K1F0 051715Z AUTO 16006KT 10SM OVC009 07/06 A2989 RMK AO2
Pressure 29.89 in
Visibility 10.0 miles
Clouds Overcast 900 ft
Windchill 41 °F
Dew Point 44 °F
Humidity 91%
Rainfall 0.02 in
Snow Depth Not available.
7:21 AM 5:20 PM
Waxing Crescent, 33% visible
METAR K1F0 051715Z AUTO 16006KT 10SM OVC009 07/06 A2989 RMK AO2

10-Day Weather Forecast

Almanac

Astronomy

Dec. 05, 2016 Rise Set
Actual Time
Civil Twilight
Nautical Twilight
Astronomical Twilight
Moon
Length of Visible Light
Length of Day
Tomorrow will be .
, % of the Moon is Illuminated

Today's Extremes

State Highs State Lows

Community

WunderPhotos

Upload Photos

1,955,794 photos uploaded!

WunderBlog® & News

Nearby

Air Quality

  Air Quality AQ Index Pollutant
Not available.

Snow Depth

Station Depth Elevation

Earthquake Activity

City Distance Mag. Time & Date
Minimum magnitude displayed is 2.5.

Coastal Water Temperatures

Place Temperature

Stations

Nearby Weather Stations

Station Location Temp. Windchill Dew Point Humidity Wind Precip. Elev Updated Type
                   

Watches & Warnings

There are currently no watches in effect.